sensor_id;sensor_type;location;lat;lon;timestamp;P1;durP1;ratioP1;P2;durP2;ratioP2
43678;SDS011;29279;50.858;4.392;2023-04-03T00:00:12;13.13;;;6.97;;
43678;SDS011;29279;50.858;4.392;2023-04-03T00:02:38;18.15;;;6.82;;
43678;SDS011;29279;50.858;4.392;2023-04-03T00:05:05;15.20;;;6.75;;
43678;SDS011;29279;50.858;4.392;2023-04-03T00:07:31;18.13;;;7.05;;
43678;SDS011;29279;50.858;4.392;2023-04-03T00:09:57;14.23;;;5.90;;
43678;SDS011;29279;50.858;4.392;2023-04-03T00:12:23;15.55;;;6.57;;
43678;SDS011;29279;50.858;4.392;2023-04-03T00:14:49;13.90;;;6.75;;
43678;SDS011;29279;50.858;4.392;2023-04-03T00:17:14;15.75;;;7.22;;
43678;SDS011;29279;50.858;4.392;2023-04-03T00:19:40;14.63;;;6.88;;
43678;SDS011;29279;50.858;4.392;2023-04-03T00:22:06;11.05;;;5.97;;
43678;SDS011;29279;50.858;4.392;2023-04-03T00:24:32;10.65;;;5.70;;
43678;SDS011;29279;50.858;4.392;2023-04-03T00:26:58;15.60;;;6.85;;
43678;SDS011;29279;50.858;4.392;2023-04-03T00:29:24;12.43;;;6.50;;
43678;SDS011;29279;50.858;4.392;2023-04-03T00:31:50;16.63;;;6.55;;
43678;SDS011;29279;50.858;4.392;2023-04-03T00:34:17;14.82;;;6.35;;
43678;SDS011;29279;50.858;4.392;2023-04-03T00:36:42;11.95;;;5.80;;
43678;SDS011;29279;50.858;4.392;2023-04-03T00:39:08;9.15;;;5.63;;
43678;SDS011;29279;50.858;4.392;2023-04-03T00:41:34;14.43;;;6.28;;
43678;SDS011;29279;50.858;4.392;2023-04-03T00:44:00;10.77;;;5.93;;
43678;SDS011;29279;50.858;4.392;2023-04-03T00:46:25;14.35;;;6.25;;
43678;SDS011;29279;50.858;4.392;2023-04-03T00:48:51;13.50;;;6.47;;
43678;SDS011;29279;50.858;4.392;2023-04-03T00:51:18;13.63;;;6.10;;
43678;SDS011;29279;50.858;4.392;2023-04-03T00:54:09;14.45;;;6.40;;
43678;SDS011;29279;50.858;4.392;2023-04-03T00:56:34;11.45;;;6.47;;
43678;SDS011;29279;50.858;4.392;2023-04-03T00:59:10;11.25;;;5.78;;
43678;SDS011;29279;50.858;4.392;2023-04-03T01:01:41;11.02;;;6.38;;
43678;SDS011;29279;50.858;4.392;2023-04-03T01:06:52;12.48;;;5.82;;
43678;SDS011;29279;50.858;4.392;2023-04-03T01:09:22;9.93;;;5.55;;
43678;SDS011;29279;50.858;4.392;2023-04-03T01:11:48;11.98;;;6.20;;
43678;SDS011;29279;50.858;4.392;2023-04-03T01:14:14;12.65;;;5.80;;
43678;SDS011;29279;50.858;4.392;2023-04-03T01:16:39;15.38;;;6.07;;
43678;SDS011;29279;50.858;4.392;2023-04-03T01:19:06;11.82;;;5.90;;
43678;SDS011;29279;50.858;4.392;2023-04-03T01:21:50;10.80;;;6.18;;
43678;SDS011;29279;50.858;4.392;2023-04-03T01:24:35;13.55;;;6.00;;
43678;SDS011;29279;50.858;4.392;2023-04-03T01:27:04;12.63;;;6.78;;
43678;SDS011;29279;50.858;4.392;2023-04-03T01:29:32;12.43;;;6.00;;
43678;SDS011;29279;50.858;4.392;2023-04-03T01:31:59;13.70;;;6.10;;
43678;SDS011;29279;50.858;4.392;2023-04-03T01:34:26;15.88;;;7.03;;
43678;SDS011;29279;50.858;4.392;2023-04-03T01:36:53;12.85;;;6.30;;
43678;SDS011;29279;50.858;4.392;2023-04-03T01:39:18;16.90;;;6.32;;
43678;SDS011;29279;50.858;4.392;2023-04-03T01:41:45;9.82;;;5.85;;
43678;SDS011;29279;50.858;4.392;2023-04-03T01:44:11;13.45;;;5.85;;
43678;SDS011;29279;50.858;4.392;2023-04-03T01:46:37;13.57;;;5.43;;
43678;SDS011;29279;50.858;4.392;2023-04-03T01:49:03;15.73;;;6.03;;
43678;SDS011;29279;50.858;4.392;2023-04-03T01:51:29;12.38;;;6.03;;
43678;SDS011;29279;50.858;4.392;2023-04-03T01:53:55;15.18;;;6.88;;
43678;SDS011;29279;50.858;4.392;2023-04-03T01:56:21;12.18;;;6.45;;
43678;SDS011;29279;50.858;4.392;2023-04-03T01:58:47;11.90;;;6.03;;
43678;SDS011;29279;50.858;4.392;2023-04-03T02:01:13;11.63;;;6.30;;
43678;SDS011;29279;50.858;4.392;2023-04-03T02:03:38;10.52;;;6.38;;
43678;SDS011;29279;50.858;4.392;2023-04-03T02:06:04;14.77;;;6.45;;
43678;SDS011;29279;50.858;4.392;2023-04-03T02:08:30;11.13;;;6.30;;
43678;SDS011;29279;50.858;4.392;2023-04-03T02:10:56;16.75;;;6.32;;
43678;SDS011;29279;50.858;4.392;2023-04-03T02:13:21;16.48;;;6.97;;
43678;SDS011;29279;50.858;4.392;2023-04-03T02:15:47;14.27;;;6.20;;
43678;SDS011;29279;50.858;4.392;2023-04-03T02:18:13;13.88;;;6.30;;
43678;SDS011;29279;50.858;4.392;2023-04-03T02:20:39;12.57;;;6.28;;
43678;SDS011;29279;50.858;4.392;2023-04-03T02:23:05;15.98;;;6.28;;
43678;SDS011;29279;50.858;4.392;2023-04-03T02:25:31;11.40;;;6.55;;
43678;SDS011;29279;50.858;4.392;2023-04-03T02:27:58;13.63;;;6.75;;
43678;SDS011;29279;50.858;4.392;2023-04-03T02:30:23;13.50;;;6.13;;
43678;SDS011;29279;50.858;4.392;2023-04-03T02:32:50;12.45;;;6.72;;
43678;SDS011;29279;50.858;4.392;2023-04-03T02:35:15;10.80;;;6.40;;
43678;SDS011;29279;50.858;4.392;2023-04-03T02:37:41;10.85;;;6.60;;
43678;SDS011;29279;50.858;4.392;2023-04-03T02:40:07;14.30;;;6.45;;
43678;SDS011;29279;50.858;4.392;2023-04-03T02:42:33;15.00;;;6.40;;
43678;SDS011;29279;50.858;4.392;2023-04-03T02:44:59;11.68;;;6.57;;
43678;SDS011;29279;50.858;4.392;2023-04-03T02:47:28;11.80;;;6.38;;
43678;SDS011;29279;50.858;4.392;2023-04-03T02:49:53;11.18;;;6.25;;
43678;SDS011;29279;50.858;4.392;2023-04-03T02:52:19;12.70;;;6.07;;
43678;SDS011;29279;50.858;4.392;2023-04-03T02:54:45;12.02;;;6.82;;
43678;SDS011;29279;50.858;4.392;2023-04-03T02:57:11;12.48;;;5.97;;
43678;SDS011;29279;50.858;4.392;2023-04-03T02:59:37;11.60;;;6.68;;
43678;SDS011;29279;50.858;4.392;2023-04-03T03:02:06;18.02;;;6.97;;
43678;SDS011;29279;50.858;4.392;2023-04-03T03:04:35;11.98;;;6.40;;
43678;SDS011;29279;50.858;4.392;2023-04-03T03:07:01;13.45;;;6.57;;
43678;SDS011;29279;50.858;4.392;2023-04-03T03:09:27;13.68;;;6.63;;
43678;SDS011;29279;50.858;4.392;2023-04-03T03:11:54;14.25;;;6.25;;
43678;SDS011;29279;50.858;4.392;2023-04-03T03:14:20;14.57;;;6.78;;
43678;SDS011;29279;50.858;4.392;2023-04-03T03:16:46;11.98;;;6.18;;
43678;SDS011;29279;50.858;4.392;2023-04-03T03:19:11;13.88;;;6.93;;
43678;SDS011;29279;50.858;4.392;2023-04-03T03:21:37;11.75;;;7.10;;
43678;SDS011;29279;50.858;4.392;2023-04-03T03:24:03;12.45;;;7.30;;
43678;SDS011;29279;50.858;4.392;2023-04-03T03:26:28;13.35;;;7.13;;
43678;SDS011;29279;50.858;4.392;2023-04-03T03:28:54;11.45;;;6.68;;
43678;SDS011;29279;50.858;4.392;2023-04-03T03:31:20;13.60;;;7.60;;
43678;SDS011;29279;50.858;4.392;2023-04-03T03:33:46;13.77;;;7.38;;
43678;SDS011;29279;50.858;4.392;2023-04-03T03:36:12;14.55;;;7.40;;
43678;SDS011;29279;50.858;4.392;2023-04-03T03:38:37;11.48;;;7.35;;
43678;SDS011;29279;50.858;4.392;2023-04-03T03:41:03;21.10;;;6.60;;
43678;SDS011;29279;50.858;4.392;2023-04-03T03:43:29;17.95;;;7.47;;
43678;SDS011;29279;50.858;4.392;2023-04-03T03:45:55;15.30;;;7.13;;
43678;SDS011;29279;50.858;4.392;2023-04-03T03:48:21;14.80;;;7.32;;
43678;SDS011;29279;50.858;4.392;2023-04-03T03:50:48;11.75;;;7.10;;
43678;SDS011;29279;50.858;4.392;2023-04-03T03:53:14;11.02;;;6.82;;
43678;SDS011;29279;50.858;4.392;2023-04-03T03:55:40;13.73;;;7.07;;
43678;SDS011;29279;50.858;4.392;2023-04-03T03:58:06;16.33;;;7.65;;
43678;SDS011;29279;50.858;4.392;2023-04-03T04:00:32;13.88;;;7.07;;
43678;SDS011;29279;50.858;4.392;2023-04-03T04:02:58;13.57;;;6.63;;
43678;SDS011;29279;50.858;4.392;2023-04-03T04:05:23;17.00;;;7.65;;
43678;SDS011;29279;50.858;4.392;2023-04-03T04:07:49;9.40;;;6.55;;
43678;SDS011;29279;50.858;4.392;2023-04-03T04:10:15;16.85;;;7.30;;
43678;SDS011;29279;50.858;4.392;2023-04-03T04:12:41;18.02;;;7.75;;
43678;SDS011;29279;50.858;4.392;2023-04-03T04:15:07;15.68;;;7.35;;
43678;SDS011;29279;50.858;4.392;2023-04-03T04:17:34;13.20;;;7.68;;
43678;SDS011;29279;50.858;4.392;2023-04-03T04:20:00;25.95;;;7.75;;
43678;SDS011;29279;50.858;4.392;2023-04-03T04:22:27;17.45;;;7.45;;
43678;SDS011;29279;50.858;4.392;2023-04-03T04:24:53;18.13;;;7.70;;
43678;SDS011;29279;50.858;4.392;2023-04-03T04:27:18;22.25;;;8.48;;
43678;SDS011;29279;50.858;4.392;2023-04-03T04:29:44;15.50;;;8.20;;
43678;SDS011;29279;50.858;4.392;2023-04-03T04:32:10;15.05;;;7.57;;
43678;SDS011;29279;50.858;4.392;2023-04-03T04:34:36;22.90;;;8.27;;
43678;SDS011;29279;50.858;4.392;2023-04-03T04:37:01;15.10;;;7.80;;
43678;SDS011;29279;50.858;4.392;2023-04-03T04:39:27;19.38;;;8.15;;
43678;SDS011;29279;50.858;4.392;2023-04-03T04:41:52;19.02;;;8.20;;
43678;SDS011;29279;50.858;4.392;2023-04-03T04:44:18;19.33;;;8.75;;
43678;SDS011;29279;50.858;4.392;2023-04-03T04:46:45;16.42;;;8.00;;
43678;SDS011;29279;50.858;4.392;2023-04-03T04:49:10;16.27;;;8.38;;
43678;SDS011;29279;50.858;4.392;2023-04-03T04:51:36;23.25;;;8.23;;
43678;SDS011;29279;50.858;4.392;2023-04-03T04:54:02;16.08;;;8.50;;
43678;SDS011;29279;50.858;4.392;2023-04-03T04:56:28;17.00;;;8.10;;
43678;SDS011;29279;50.858;4.392;2023-04-03T04:58:53;15.23;;;8.30;;
43678;SDS011;29279;50.858;4.392;2023-04-03T05:01:19;16.80;;;8.15;;
43678;SDS011;29279;50.858;4.392;2023-04-03T05:03:45;13.85;;;8.40;;
43678;SDS011;29279;50.858;4.392;2023-04-03T05:06:10;23.73;;;8.48;;
43678;SDS011;29279;50.858;4.392;2023-04-03T05:08:36;19.02;;;8.75;;
43678;SDS011;29279;50.858;4.392;2023-04-03T05:11:02;18.33;;;9.05;;
43678;SDS011;29279;50.858;4.392;2023-04-03T05:13:28;17.70;;;8.93;;
43678;SDS011;29279;50.858;4.392;2023-04-03T05:15:53;20.67;;;8.98;;
43678;SDS011;29279;50.858;4.392;2023-04-03T05:18:19;20.10;;;9.90;;
43678;SDS011;29279;50.858;4.392;2023-04-03T05:20:45;19.65;;;9.55;;
43678;SDS011;29279;50.858;4.392;2023-04-03T05:23:13;17.00;;;10.18;;
43678;SDS011;29279;50.858;4.392;2023-04-03T05:25:38;20.10;;;9.30;;
43678;SDS011;29279;50.858;4.392;2023-04-03T05:28:04;18.52;;;10.85;;
43678;SDS011;29279;50.858;4.392;2023-04-03T05:30:30;18.33;;;9.60;;
43678;SDS011;29279;50.858;4.392;2023-04-03T05:32:55;18.45;;;9.90;;
43678;SDS011;29279;50.858;4.392;2023-04-03T05:35:21;18.98;;;9.18;;
43678;SDS011;29279;50.858;4.392;2023-04-03T05:37:47;14.85;;;9.82;;
43678;SDS011;29279;50.858;4.392;2023-04-03T05:40:13;17.48;;;9.95;;
43678;SDS011;29279;50.858;4.392;2023-04-03T05:42:39;17.65;;;10.25;;
43678;SDS011;29279;50.858;4.392;2023-04-03T05:45:05;16.02;;;10.05;;
43678;SDS011;29279;50.858;4.392;2023-04-03T05:47:31;16.80;;;10.68;;
43678;SDS011;29279;50.858;4.392;2023-04-03T05:49:57;20.13;;;10.30;;
43678;SDS011;29279;50.858;4.392;2023-04-03T05:52:23;16.95;;;9.80;;
43678;SDS011;29279;50.858;4.392;2023-04-03T05:54:55;18.63;;;10.23;;
43678;SDS011;29279;50.858;4.392;2023-04-03T05:57:21;26.58;;;11.77;;
43678;SDS011;29279;50.858;4.392;2023-04-03T05:59:48;19.55;;;10.75;;
43678;SDS011;29279;50.858;4.392;2023-04-03T06:02:15;22.85;;;10.63;;
43678;SDS011;29279;50.858;4.392;2023-04-03T06:04:42;18.98;;;10.35;;
43678;SDS011;29279;50.858;4.392;2023-04-03T06:07:10;17.48;;;10.10;;
43678;SDS011;29279;50.858;4.392;2023-04-03T06:09:38;18.45;;;9.50;;
43678;SDS011;29279;50.858;4.392;2023-04-03T06:12:04;19.80;;;10.13;;
43678;SDS011;29279;50.858;4.392;2023-04-03T06:14:30;17.23;;;10.38;;
43678;SDS011;29279;50.858;4.392;2023-04-03T06:16:55;17.45;;;9.43;;
43678;SDS011;29279;50.858;4.392;2023-04-03T06:19:21;24.38;;;10.23;;
43678;SDS011;29279;50.858;4.392;2023-04-03T06:21:47;18.08;;;9.77;;
43678;SDS011;29279;50.858;4.392;2023-04-03T06:24:14;18.90;;;10.68;;
43678;SDS011;29279;50.858;4.392;2023-04-03T06:26:41;12.57;;;9.07;;
43678;SDS011;29279;50.858;4.392;2023-04-03T06:29:07;17.75;;;11.30;;
43678;SDS011;29279;50.858;4.392;2023-04-03T06:31:33;13.68;;;8.75;;
43678;SDS011;29279;50.858;4.392;2023-04-03T06:34:01;24.15;;;10.93;;
43678;SDS011;29279;50.858;4.392;2023-04-03T06:36:28;18.48;;;10.38;;
43678;SDS011;29279;50.858;4.392;2023-04-03T06:38:55;17.48;;;10.23;;
43678;SDS011;29279;50.858;4.392;2023-04-03T06:41:20;17.83;;;9.82;;
43678;SDS011;29279;50.858;4.392;2023-04-03T06:43:47;20.70;;;10.25;;
43678;SDS011;29279;50.858;4.392;2023-04-03T06:46:16;24.67;;;10.85;;
43678;SDS011;29279;50.858;4.392;2023-04-03T06:48:43;24.25;;;10.38;;
43678;SDS011;29279;50.858;4.392;2023-04-03T06:53:47;21.13;;;10.60;;
43678;SDS011;29279;50.858;4.392;2023-04-03T06:56:14;22.67;;;9.70;;
43678;SDS011;29279;50.858;4.392;2023-04-03T06:58:40;19.63;;;10.07;;
43678;SDS011;29279;50.858;4.392;2023-04-03T07:01:07;22.42;;;9.90;;
43678;SDS011;29279;50.858;4.392;2023-04-03T07:03:35;16.05;;;10.10;;
43678;SDS011;29279;50.858;4.392;2023-04-03T07:06:02;16.98;;;9.65;;
43678;SDS011;29279;50.858;4.392;2023-04-03T07:08:28;16.95;;;8.93;;
43678;SDS011;29279;50.858;4.392;2023-04-03T07:10:54;19.63;;;9.20;;
43678;SDS011;29279;50.858;4.392;2023-04-03T07:13:20;19.05;;;9.73;;
43678;SDS011;29279;50.858;4.392;2023-04-03T07:15:46;18.90;;;9.05;;
43678;SDS011;29279;50.858;4.392;2023-04-03T07:18:11;15.85;;;9.57;;
43678;SDS011;29279;50.858;4.392;2023-04-03T07:20:38;15.38;;;9.00;;
43678;SDS011;29279;50.858;4.392;2023-04-03T07:23:04;17.85;;;8.55;;
43678;SDS011;29279;50.858;4.392;2023-04-03T07:25:30;16.42;;;9.25;;
43678;SDS011;29279;50.858;4.392;2023-04-03T07:27:56;18.65;;;9.05;;
43678;SDS011;29279;50.858;4.392;2023-04-03T07:30:22;17.17;;;9.23;;
43678;SDS011;29279;50.858;4.392;2023-04-03T07:32:48;16.35;;;8.57;;
43678;SDS011;29279;50.858;4.392;2023-04-03T07:35:14;20.17;;;9.85;;
43678;SDS011;29279;50.858;4.392;2023-04-03T07:37:41;19.33;;;8.75;;
43678;SDS011;29279;50.858;4.392;2023-04-03T07:40:07;21.30;;;9.52;;
43678;SDS011;29279;50.858;4.392;2023-04-03T07:42:33;19.13;;;8.88;;
43678;SDS011;29279;50.858;4.392;2023-04-03T07:45:00;17.02;;;8.75;;
43678;SDS011;29279;50.858;4.392;2023-04-03T07:47:27;19.77;;;9.00;;
43678;SDS011;29279;50.858;4.392;2023-04-03T07:49:53;16.05;;;9.30;;
43678;SDS011;29279;50.858;4.392;2023-04-03T07:52:18;17.60;;;8.68;;
43678;SDS011;29279;50.858;4.392;2023-04-03T07:54:44;16.65;;;8.70;;
43678;SDS011;29279;50.858;4.392;2023-04-03T07:57:10;19.58;;;8.77;;
43678;SDS011;29279;50.858;4.392;2023-04-03T07:59:37;13.52;;;8.63;;
43678;SDS011;29279;50.858;4.392;2023-04-03T08:02:04;19.60;;;8.38;;
43678;SDS011;29279;50.858;4.392;2023-04-03T08:04:30;18.85;;;7.75;;
43678;SDS011;29279;50.858;4.392;2023-04-03T08:06:56;16.00;;;7.68;;
43678;SDS011;29279;50.858;4.392;2023-04-03T08:09:21;12.07;;;7.88;;
43678;SDS011;29279;50.858;4.392;2023-04-03T08:11:48;15.98;;;8.45;;
43678;SDS011;29279;50.858;4.392;2023-04-03T08:14:14;13.18;;;7.45;;
43678;SDS011;29279;50.858;4.392;2023-04-03T08:16:42;15.05;;;7.28;;
43678;SDS011;29279;50.858;4.392;2023-04-03T08:19:09;12.95;;;7.55;;
43678;SDS011;29279;50.858;4.392;2023-04-03T08:21:35;18.10;;;8.30;;
43678;SDS011;29279;50.858;4.392;2023-04-03T08:24:01;19.58;;;7.47;;
43678;SDS011;29279;50.858;4.392;2023-04-03T08:26:28;14.70;;;7.15;;
43678;SDS011;29279;50.858;4.392;2023-04-03T08:28:54;21.25;;;7.70;;
43678;SDS011;29279;50.858;4.392;2023-04-03T08:31:19;15.98;;;7.00;;
43678;SDS011;29279;50.858;4.392;2023-04-03T08:33:45;14.63;;;6.93;;
43678;SDS011;29279;50.858;4.392;2023-04-03T08:38:48;14.13;;;6.93;;
43678;SDS011;29279;50.858;4.392;2023-04-03T08:44:08;13.95;;;5.97;;
43678;SDS011;29279;50.858;4.392;2023-04-03T08:46:43;9.65;;;5.47;;
43678;SDS011;29279;50.858;4.392;2023-04-03T08:51:59;12.65;;;6.10;;
43678;SDS011;29279;50.858;4.392;2023-04-03T08:54:37;14.80;;;5.70;;
43678;SDS011;29279;50.858;4.392;2023-04-03T08:57:13;10.88;;;5.45;;
43678;SDS011;29279;50.858;4.392;2023-04-03T08:59:39;13.52;;;5.30;;
43678;SDS011;29279;50.858;4.392;2023-04-03T09:05:01;11.68;;;5.38;;
43678;SDS011;29279;50.858;4.392;2023-04-03T09:07:38;15.45;;;4.80;;
43678;SDS011;29279;50.858;4.392;2023-04-03T09:10:09;14.68;;;3.83;;
43678;SDS011;29279;50.858;4.392;2023-04-03T09:12:39;9.65;;;4.13;;
43678;SDS011;29279;50.858;4.392;2023-04-03T09:23:01;10.00;;;3.28;;
43678;SDS011;29279;50.858;4.392;2023-04-03T09:25:39;10.25;;;3.60;;
43678;SDS011;29279;50.858;4.392;2023-04-03T09:28:05;8.68;;;3.42;;
43678;SDS011;29279;50.858;4.392;2023-04-03T09:30:34;12.80;;;3.33;;
43678;SDS011;29279;50.858;4.392;2023-04-03T09:33:00;9.10;;;2.78;;
43678;SDS011;29279;50.858;4.392;2023-04-03T09:35:33;8.13;;;2.97;;
43678;SDS011;29279;50.858;4.392;2023-04-03T09:40:36;8.30;;;2.25;;
43678;SDS011;29279;50.858;4.392;2023-04-03T09:45:46;9.65;;;2.75;;
43678;SDS011;29279;50.858;4.392;2023-04-03T09:51:02;6.70;;;2.60;;
43678;SDS011;29279;50.858;4.392;2023-04-03T09:56:01;6.72;;;2.67;;
43678;SDS011;29279;50.858;4.392;2023-04-03T09:58:29;8.45;;;2.80;;
43678;SDS011;29279;50.858;4.392;2023-04-03T10:01:02;8.20;;;3.08;;
43678;SDS011;29279;50.858;4.392;2023-04-03T10:03:29;6.72;;;3.08;;
43678;SDS011;29279;50.858;4.392;2023-04-03T10:05:57;7.68;;;2.63;;
43678;SDS011;29279;50.858;4.392;2023-04-03T10:11:10;6.53;;;2.35;;
43678;SDS011;29279;50.858;4.392;2023-04-03T10:13:48;7.53;;;2.55;;
43678;SDS011;29279;50.858;4.392;2023-04-03T10:19:30;6.15;;;2.33;;
43678;SDS011;29279;50.858;4.392;2023-04-03T10:22:03;9.10;;;2.55;;
43678;SDS011;29279;50.858;4.392;2023-04-03T10:24:44;7.25;;;2.65;;
43678;SDS011;29279;50.858;4.392;2023-04-03T10:28:15;6.32;;;2.60;;
43678;SDS011;29279;50.858;4.392;2023-04-03T10:33:20;4.65;;;2.13;;
43678;SDS011;29279;50.858;4.392;2023-04-03T10:46:13;5.82;;;2.40;;
43678;SDS011;29279;50.858;4.392;2023-04-03T10:51:47;5.82;;;2.08;;
43678;SDS011;29279;50.858;4.392;2023-04-03T10:56:52;7.85;;;2.17;;
43678;SDS011;29279;50.858;4.392;2023-04-03T10:59:26;5.88;;;1.85;;
43678;SDS011;29279;50.858;4.392;2023-04-03T11:02:00;5.75;;;2.22;;
43678;SDS011;29279;50.858;4.392;2023-04-03T11:04:33;4.53;;;2.05;;
43678;SDS011;29279;50.858;4.392;2023-04-03T11:07:01;4.78;;;1.90;;
43678;SDS011;29279;50.858;4.392;2023-04-03T11:09:37;4.57;;;1.80;;
43678;SDS011;29279;50.858;4.392;2023-04-03T11:12:12;7.63;;;1.92;;
43678;SDS011;29279;50.858;4.392;2023-04-03T11:14:50;9.70;;;2.20;;
43678;SDS011;29279;50.858;4.392;2023-04-03T11:25:46;5.35;;;1.92;;
43678;SDS011;29279;50.858;4.392;2023-04-03T11:28:17;5.30;;;2.35;;
43678;SDS011;29279;50.858;4.392;2023-04-03T11:33:45;4.93;;;2.30;;
43678;SDS011;29279;50.858;4.392;2023-04-03T11:36:32;6.30;;;2.03;;
43678;SDS011;29279;50.858;4.392;2023-04-03T11:39:33;12.65;;;2.60;;
43678;SDS011;29279;50.858;4.392;2023-04-03T11:50:39;4.10;;;1.80;;
43678;SDS011;29279;50.858;4.392;2023-04-03T12:00:47;5.50;;;2.17;;
43678;SDS011;29279;50.858;4.392;2023-04-03T12:13:39;8.68;;;2.13;;
43678;SDS011;29279;50.858;4.392;2023-04-03T12:16:24;9.32;;;2.05;;
43678;SDS011;29279;50.858;4.392;2023-04-03T12:34:33;4.85;;;1.73;;
43678;SDS011;29279;50.858;4.392;2023-04-03T12:40:07;8.80;;;1.67;;
43678;SDS011;29279;50.858;4.392;2023-04-03T12:42:55;4.68;;;1.95;;
43678;SDS011;29279;50.858;4.392;2023-04-03T12:51:35;5.70;;;2.28;;
43678;SDS011;29279;50.858;4.392;2023-04-03T12:54:26;2.58;;;1.50;;
43678;SDS011;29279;50.858;4.392;2023-04-03T12:59:36;4.25;;;1.88;;
43678;SDS011;29279;50.858;4.392;2023-04-03T13:02:07;3.97;;;1.80;;
43678;SDS011;29279;50.858;4.392;2023-04-03T13:04:53;3.15;;;1.38;;
43678;SDS011;29279;50.858;4.392;2023-04-03T13:10:01;7.57;;;1.67;;
43678;SDS011;29279;50.858;4.392;2023-04-03T13:12:34;5.82;;;1.70;;
43678;SDS011;29279;50.858;4.392;2023-04-03T13:15:11;3.65;;;1.55;;
43678;SDS011;29279;50.858;4.392;2023-04-03T13:17:42;5.32;;;1.80;;
43678;SDS011;29279;50.858;4.392;2023-04-03T13:20:18;4.30;;;1.60;;
43678;SDS011;29279;50.858;4.392;2023-04-03T13:22:51;3.53;;;1.40;;
43678;SDS011;29279;50.858;4.392;2023-04-03T13:25:27;2.45;;;1.33;;
43678;SDS011;29279;50.858;4.392;2023-04-03T13:27:56;5.53;;;1.60;;
43678;SDS011;29279;50.858;4.392;2023-04-03T13:32:56;5.28;;;1.33;;
43678;SDS011;29279;50.858;4.392;2023-04-03T13:35:26;6.20;;;1.80;;
43678;SDS011;29279;50.858;4.392;2023-04-03T13:40:55;3.72;;;1.48;;
43678;SDS011;29279;50.858;4.392;2023-04-03T13:43:26;10.48;;;1.95;;
43678;SDS011;29279;50.858;4.392;2023-04-03T13:45:55;3.08;;;1.63;;
43678;SDS011;29279;50.858;4.392;2023-04-03T13:48:24;4.90;;;2.13;;
43678;SDS011;29279;50.858;4.392;2023-04-03T13:50:52;5.18;;;2.00;;
43678;SDS011;29279;50.858;4.392;2023-04-03T13:53:30;4.05;;;1.60;;
43678;SDS011;29279;50.858;4.392;2023-04-03T13:55:59;5.57;;;1.60;;
43678;SDS011;29279;50.858;4.392;2023-04-03T13:58:31;5.38;;;1.90;;
43678;SDS011;29279;50.858;4.392;2023-04-03T14:01:11;5.55;;;2.15;;
43678;SDS011;29279;50.858;4.392;2023-04-03T14:03:46;4.55;;;2.13;;
43678;SDS011;29279;50.858;4.392;2023-04-03T14:06:24;5.20;;;1.77;;
43678;SDS011;29279;50.858;4.392;2023-04-03T14:08:50;8.30;;;2.10;;
43678;SDS011;29279;50.858;4.392;2023-04-03T14:11:24;4.32;;;2.28;;
43678;SDS011;29279;50.858;4.392;2023-04-03T14:13:54;3.90;;;1.90;;
43678;SDS011;29279;50.858;4.392;2023-04-03T14:16:23;4.20;;;1.80;;
43678;SDS011;29279;50.858;4.392;2023-04-03T14:18:52;4.78;;;1.80;;
43678;SDS011;29279;50.858;4.392;2023-04-03T14:21:19;4.63;;;1.60;;
43678;SDS011;29279;50.858;4.392;2023-04-03T14:23:46;4.20;;;2.00;;
43678;SDS011;29279;50.858;4.392;2023-04-03T14:26:13;5.82;;;2.00;;
43678;SDS011;29279;50.858;4.392;2023-04-03T14:28:45;4.28;;;1.88;;
43678;SDS011;29279;50.858;4.392;2023-04-03T14:31:14;4.78;;;1.90;;
43678;SDS011;29279;50.858;4.392;2023-04-03T14:33:41;3.80;;;1.65;;
43678;SDS011;29279;50.858;4.392;2023-04-03T14:36:17;6.35;;;1.63;;
43678;SDS011;29279;50.858;4.392;2023-04-03T14:38:50;4.68;;;2.15;;
43678;SDS011;29279;50.858;4.392;2023-04-03T14:41:17;6.43;;;1.83;;
43678;SDS011;29279;50.858;4.392;2023-04-03T14:43:45;5.15;;;1.52;;
43678;SDS011;29279;50.858;4.392;2023-04-03T14:46:19;4.13;;;2.00;;
43678;SDS011;29279;50.858;4.392;2023-04-03T14:48:47;3.55;;;1.73;;
43678;SDS011;29279;50.858;4.392;2023-04-03T14:51:13;8.13;;;1.83;;
43678;SDS011;29279;50.858;4.392;2023-04-03T14:53:40;7.15;;;1.60;;
43678;SDS011;29279;50.858;4.392;2023-04-03T14:56:17;6.57;;;1.92;;
43678;SDS011;29279;50.858;4.392;2023-04-03T14:58:50;7.40;;;1.70;;
43678;SDS011;29279;50.858;4.392;2023-04-03T15:01:21;4.32;;;1.70;;
43678;SDS011;29279;50.858;4.392;2023-04-03T15:03:47;10.77;;;1.50;;
43678;SDS011;29279;50.858;4.392;2023-04-03T15:06:13;2.60;;;1.27;;
43678;SDS011;29279;50.858;4.392;2023-04-03T15:08:40;6.85;;;1.50;;
43678;SDS011;29279;50.858;4.392;2023-04-03T15:11:07;5.30;;;1.50;;
43678;SDS011;29279;50.858;4.392;2023-04-03T15:13:35;3.58;;;1.27;;
43678;SDS011;29279;50.858;4.392;2023-04-03T15:16:01;6.45;;;1.67;;
43678;SDS011;29279;50.858;4.392;2023-04-03T15:18:27;9.23;;;1.73;;
43678;SDS011;29279;50.858;4.392;2023-04-03T15:20:57;11.73;;;1.50;;
43678;SDS011;29279;50.858;4.392;2023-04-03T15:23:23;8.13;;;1.50;;
43678;SDS011;29279;50.858;4.392;2023-04-03T15:25:53;2.92;;;1.25;;
43678;SDS011;29279;50.858;4.392;2023-04-03T15:30:50;2.92;;;1.52;;
43678;SDS011;29279;50.858;4.392;2023-04-03T15:33:16;3.50;;;1.73;;
43678;SDS011;29279;50.858;4.392;2023-04-03T15:35:42;4.25;;;1.58;;
43678;SDS011;29279;50.858;4.392;2023-04-03T15:38:08;3.15;;;1.50;;
43678;SDS011;29279;50.858;4.392;2023-04-03T15:40:34;4.63;;;1.50;;
43678;SDS011;29279;50.858;4.392;2023-04-03T15:43:00;6.55;;;1.55;;
43678;SDS011;29279;50.858;4.392;2023-04-03T15:45:27;4.97;;;1.67;;
43678;SDS011;29279;50.858;4.392;2023-04-03T15:47:54;3.30;;;1.42;;
43678;SDS011;29279;50.858;4.392;2023-04-03T15:50:20;7.90;;;1.70;;
43678;SDS011;29279;50.858;4.392;2023-04-03T15:52:48;5.53;;;1.58;;
43678;SDS011;29279;50.858;4.392;2023-04-03T15:55:19;7.18;;;1.63;;
43678;SDS011;29279;50.858;4.392;2023-04-03T15:57:45;5.57;;;1.67;;
43678;SDS011;29279;50.858;4.392;2023-04-03T16:00:11;8.43;;;1.90;;
43678;SDS011;29279;50.858;4.392;2023-04-03T16:02:37;4.25;;;1.90;;
43678;SDS011;29279;50.858;4.392;2023-04-03T16:05:03;7.88;;;2.08;;
43678;SDS011;29279;50.858;4.392;2023-04-03T16:07:30;4.90;;;2.13;;
43678;SDS011;29279;50.858;4.392;2023-04-03T16:09:55;5.43;;;1.65;;
43678;SDS011;29279;50.858;4.392;2023-04-03T16:12:21;5.35;;;1.75;;
43678;SDS011;29279;50.858;4.392;2023-04-03T16:14:47;4.32;;;1.85;;
43678;SDS011;29279;50.858;4.392;2023-04-03T16:17:13;6.68;;;1.77;;
43678;SDS011;29279;50.858;4.392;2023-04-03T16:19:38;6.47;;;2.20;;
43678;SDS011;29279;50.858;4.392;2023-04-03T16:22:04;8.18;;;1.73;;
43678;SDS011;29279;50.858;4.392;2023-04-03T16:24:30;3.85;;;1.92;;
43678;SDS011;29279;50.858;4.392;2023-04-03T16:26:57;6.05;;;2.47;;
43678;SDS011;29279;50.858;4.392;2023-04-03T16:29:23;7.13;;;2.13;;
43678;SDS011;29279;50.858;4.392;2023-04-03T16:31:49;7.07;;;2.20;;
43678;SDS011;29279;50.858;4.392;2023-04-03T16:34:14;4.82;;;1.75;;
43678;SDS011;29279;50.858;4.392;2023-04-03T16:36:41;4.35;;;1.60;;
43678;SDS011;29279;50.858;4.392;2023-04-03T16:39:07;4.07;;;2.22;;
43678;SDS011;29279;50.858;4.392;2023-04-03T16:41:34;7.50;;;2.35;;
43678;SDS011;29279;50.858;4.392;2023-04-03T16:44:00;6.97;;;2.67;;
43678;SDS011;29279;50.858;4.392;2023-04-03T16:46:26;5.28;;;2.33;;
43678;SDS011;29279;50.858;4.392;2023-04-03T16:48:52;10.98;;;3.55;;
43678;SDS011;29279;50.858;4.392;2023-04-03T16:51:17;6.43;;;2.47;;
43678;SDS011;29279;50.858;4.392;2023-04-03T16:53:43;11.13;;;2.92;;
43678;SDS011;29279;50.858;4.392;2023-04-03T16:56:09;7.50;;;2.05;;
43678;SDS011;29279;50.858;4.392;2023-04-03T16:58:35;7.05;;;1.65;;